Terminal Aerodrome Forecast
Issued by NWS Billings, MT

Home | Current Version | Previous Version | Graphics & Text | Print | Product List | Glossary On
Versions: 1 2 3 4 5 6 7 8 9 10 11 12 13
000
FTUS45 KBYZ 211131
TAFMLS
TAF
KMLS 211131Z 2112/2212 26009KT P6SM -RA VCSH OVC070
     FM211500 32009KT P6SM VCSH BKN080
     FM220200 01010KT P6SM -RA SCT050 BKN070
     FM220900 35010KT P6SM -RA SCT060 BKN080=

USA.gov is the U.S. government's official web portal to all federal, state and local government web resources and services.